This is the latest recevied weather packets stored in our database for station/object WA6GRA. If no packets are shown the sender has not sent any weather packets the latest 10 day(s).
| Time | Temp. | Humidity | Pressure | Rain* | Wind** | Luminosity | Snow |
|---|---|---|---|---|---|---|---|
| 1777852415 | 23.33° C | 48% | 1009.5 hPa | 0 mm | - | 175 W/m² | - |
| 1777851810 | 23.89° C | 46% | 1009.2 hPa | 0 mm | - | 422 W/m² | - |
| 1777851209 | 24.44° C | 45% | 1009.4 hPa | 0 mm | - | 445 W/m² | - |
| 1777850609 | 23.89° C | 48% | 1009.5 hPa | 0 mm | - | 496 W/m² | - |
| 1777850010 | 23.33° C | 50% | 1009.6 hPa | 0 mm | - | 525 W/m² | - |
| 1777849408 | 23.89° C | 49% | 1009.8 hPa | 0 mm | - | 557 W/m² | - |
| 1777848808 | 23.33° C | 51% | 1009.8 hPa | 0 mm | - | 583 W/m² | - |
| 1777848207 | 23.89° C | 50% | 1009.6 hPa | 0 mm | - | 630 W/m² | - |
| 1777847603 | 23.33° C | 53% | 1009.8 hPa | 0 mm | - | 650 W/m² | - |
| 1777847003 | 23.33° C | 53% | 1010.1 hPa | 0 mm | - | 717 W/m² | - |
| 1777846399 | 22.78° C | 55% | 1010 hPa | 0 mm | - | 433 W/m² | - |
| 1777845797 | 22.78° C | 53% | 1010.2 hPa | 0 mm | - | 771 W/m² | - |
| 1777845197 | 22.78° C | 53% | 1010.3 hPa | 0 mm | - | 768 W/m² | - |
| 1777844592 | 22.22° C | 55% | 1010.4 hPa | 0 mm | - | 359 W/m² | - |
| 1777843987 | 21.67° C | 56% | 1010.4 hPa | 0 mm | - | 253 W/m² | - |
| 1777843381 | 23.33° C | 52% | 1010.3 hPa | 0 mm | - | 238 W/m² | - |
| 1777842781 | 22.22° C | 56% | 1010.4 hPa | 0 mm | - | 890 W/m² | - |
| 1777842179 | 22.22° C | 55% | 1010.4 hPa | 0 mm | - | 925 W/m² | - |
| 1777841576 | 22.22° C | 56% | 1010.5 hPa | 0 mm | - | 402 W/m² | - |
| 1777840977 | 21.67° C | 57% | 1010.9 hPa | 0 mm | - | 917 W/m² | - |
| 1777840371 | 21.67° C | 57% | 1010.8 hPa | 0 mm | - | 259 W/m² | - |
| 1777839766 | 21.11° C | 58% | 1011 hPa | 0 mm | - | 924 W/m² | - |
| 1777839167 | 20.56° C | 60% | 1011.4 hPa | 0 mm | - | 979 W/m² | - |
| 1777838565 | 20.56° C | 61% | 1011.3 hPa | 0 mm | - | 953 W/m² | - |
| 1777837965 | 21.67° C | 58% | 1011.7 hPa | 0 mm | - | 317 W/m² | - |
* Rain latest hour (hover to see other rain measurements)
** Current wind speed in m/s (hover to see current wind gust speed)